Time;durP1;ratioP1;P1;durP2;ratioP2;P2;SDS_P1;SDS_P2;PMS_P1;PMS_P2;Temp;Humidity;BMP_temperature;BMP_pressure;BME280_temperature;BME280_humidity;BME280_pressure;Samples;Min_cycle;Max_cycle;Signal;HPM_P1;HPM_P2
2022/02/15 00:01:11;;;;;;;19.90;9.98;;;7.20;68.50;;;;;;5071859;28;20051;-76
2022/02/15 00:03:37;;;;;;;30.00;17.25;;;7.20;68.60;;;;;;5072401;28;20137;-77
2022/02/15 00:06:03;;;;;;;31.83;18.85;;;7.10;68.80;;;;;;5071793;28;20032;-77
2022/02/15 00:08:29;;;;;;;46.08;22.30;;;7.10;68.60;;;;;;5055642;28;20595;-77
2022/02/15 00:10:56;;;;;;;42.53;22.25;;;7.10;68.60;;;;;;5071616;28;20035;-77
2022/02/15 00:13:22;;;;;;;26.65;12.55;;;7.00;68.70;;;;;;5073320;28;20039;-76
2022/02/15 00:15:48;;;;;;;14.82;7.78;;;7.10;69.10;;;;;;5055090;28;20489;-76
2022/02/15 00:18:14;;;;;;;;;;;7.00;69.60;;;;;;5071635;28;20049;-76
2022/02/15 00:20:41;;;;;;;12.20;6.38;;;6.90;69.30;;;;;;5071658;28;19916;-77
2022/02/15 00:23:08;;;;;;;14.27;7.72;;;6.90;69.60;;;;;;5055324;28;20028;-76
2022/02/15 00:25:34;;;;;;;15.48;8.07;;;6.90;69.70;;;;;;5071515;28;20438;-77
2022/02/15 00:28:00;;;;;;;16.70;7.97;;;6.90;69.70;;;;;;5073132;28;20042;-76
2022/02/15 00:30:26;;;;;;;13.02;7.20;;;6.90;69.70;;;;;;5055039;28;20503;-77
2022/02/15 00:32:52;;;;;;;14.27;6.97;;;6.90;69.90;;;;;;5070804;28;20489;-76
2022/02/15 00:35:18;;;;;;;17.13;8.07;;;6.80;69.90;;;;;;5071266;28;20044;-76
2022/02/15 00:37:44;;;;;;;;;;;6.80;69.80;;;;;;5072320;28;20050;-76
2022/02/15 00:40:12;;;;;;;13.73;6.95;;;6.80;69.50;;;;;;5071130;28;19917;-76
2022/02/15 00:42:40;;;;;;;12.95;6.55;;;6.70;69.40;;;;;;5071745;28;20025;-77
2022/02/15 00:45:07;;;;;;;14.30;7.10;;;6.70;69.50;;;;;;5071456;28;20409;-76
2022/02/15 00:47:34;;;;;;;12.73;6.35;;;6.60;69.50;;;;;;5059857;28;20112;-77
2022/02/15 00:50:01;;;;;;;10.93;6.25;;;6.60;68.90;;;;;;5034913;28;20072;-77
2022/02/15 00:52:27;;;;;;;12.65;5.95;;;6.60;69.30;;;;;;5050630;28;20060;-76
2022/02/15 00:54:55;;;;;;;15.13;6.53;;;6.60;69.50;;;;;;5051378;28;20059;-77
2022/02/15 00:57:22;;;;;;;14.25;6.55;;;6.50;69.30;;;;;;5051077;28;20515;-77
2022/02/15 00:59:50;;;;;;;11.82;6.82;;;6.50;69.30;;;;;;5051520;28;20041;-76
2022/02/15 01:02:16;;;;;;;12.27;6.70;;;6.40;69.20;;;;;;5041240;28;20076;-77
2022/02/15 01:04:42;;;;;;;;;;;6.30;68.70;;;;;;5073574;28;20071;-76
2022/02/15 01:07:08;;;;;;;12.50;6.75;;;6.30;68.40;;;;;;5072249;28;19917;-76
2022/02/15 01:09:34;;;;;;;10.80;6.20;;;6.30;69.30;;;;;;5072971;28;20082;-77
2022/02/15 01:12:01;;;;;;;11.52;6.20;;;6.20;68.50;;;;;;5070851;28;20191;-76
2022/02/15 01:14:27;;;;;;;16.75;7.95;;;6.20;69.20;;;;;;5071503;28;20056;-77
2022/02/15 01:16:53;;;;;;;;;;;6.20;69.10;;;;;;5071769;28;20127;-76
2022/02/15 01:19:19;;;;;;;15.40;8.55;;;6.10;68.20;;;;;;5072996;28;19943;-76
2022/02/15 01:21:46;;;;;;;;;;;6.00;68.70;;;;;;5071463;28;20113;-76
2022/02/15 01:24:12;;;;;;;26.33;13.00;;;6.00;68.10;;;;;;5071126;28;19916;-76
2022/02/15 01:26:38;;;;;;;22.15;12.38;;;6.00;68.70;;;;;;5072142;28;20486;-76
2022/02/15 01:29:05;;;;;;;27.65;13.98;;;6.00;68.80;;;;;;5072409;28;20037;-77
2022/02/15 01:31:32;;;;;;;26.92;13.35;;;5.90;68.90;;;;;;5054159;28;20052;-77
2022/02/15 01:33:58;;;;;;;;;;;5.90;69.10;;;;;;5054200;28;20041;-76
2022/02/15 01:36:24;;;;;;;24.33;10.90;;;5.90;68.80;;;;;;5070548;28;19916;-76
2022/02/15 01:38:50;;;;;;;17.58;9.68;;;5.90;68.60;;;;;;5072647;28;20066;-77
2022/02/15 01:41:16;;;;;;;22.42;10.65;;;5.90;68.70;;;;;;5053969;28;20486;-77
2022/02/15 01:43:46;;;;;;;25.88;13.35;;;5.90;68.90;;;;;;5072414;28;20106;-77
2022/02/15 01:46:14;;;;;;;36.25;17.73;;;5.90;68.60;;;;;;5070618;28;20072;-77
2022/02/15 01:48:41;;;;;;;27.73;14.00;;;5.90;68.60;;;;;;5070090;28;20577;-77
2022/02/15 01:51:08;;;;;;;20.27;11.27;;;5.90;69.00;;;;;;5070544;28;20032;-76
2022/02/15 01:53:34;;;;;;;22.60;10.50;;;5.80;68.40;;;;;;5071043;28;20527;-76
2022/02/15 01:56:01;;;;;;;18.63;9.38;;;5.80;70.10;;;;;;5071675;28;20397;-77
2022/02/15 01:58:27;;;;;;;15.15;8.05;;;5.80;68.90;;;;;;5070849;28;20047;-76
2022/02/15 02:00:54;;;;;;;15.63;8.93;;;5.70;69.20;;;;;;5053581;28;20029;-77
2022/02/15 02:03:20;;;;;;;;;;;5.70;69.20;;;;;;5070338;28;20044;-77
2022/02/15 02:05:48;;;;;;;17.90;9.48;;;5.70;68.90;;;;;;5074051;28;19923;-77
2022/02/15 02:08:34;;;;;;;16.73;8.25;;;5.60;68.90;;;;;;5075788;28;20545;-76
2022/02/15 02:11:02;;;;;;;20.17;8.90;;;5.60;69.20;;;;;;5075634;28;20036;-77
2022/02/15 02:13:28;;;;;;;19.45;9.65;;;5.50;69.10;;;;;;5074399;28;20037;-77
2022/02/15 02:15:55;;;;;;;18.98;10.18;;;5.60;69.20;;;;;;5073921;28;20032;-77
2022/02/15 02:18:21;;;;;;;15.68;9.40;;;5.50;68.50;;;;;;5056664;28;20048;-77
2022/02/15 02:20:47;;;;;;;18.83;10.13;;;5.60;69.10;;;;;;5073914;28;20037;-77
2022/02/15 02:23:16;;;;;;;;;;;5.50;69.10;;;;;;5074659;28;20040;-76
2022/02/15 02:25:42;;;;;;;16.67;9.30;;;5.50;68.70;;;;;;5073716;28;19970;-77
2022/02/15 02:28:10;;;;;;;19.80;9.55;;;5.50;68.70;;;;;;5074161;28;20661;-76
2022/02/15 02:30:37;;;;;;;17.88;9.13;;;5.40;68.70;;;;;;5073748;28;20067;-76
2022/02/15 02:33:04;;;;;;;19.65;9.60;;;5.40;68.60;;;;;;5072930;28;20078;-77
2022/02/15 02:35:30;;;;;;;18.35;10.02;;;5.40;68.70;;;;;;5056934;28;20477;-77
2022/02/15 02:37:56;;;;;;;;;;;5.30;68.80;;;;;;5074479;28;20044;-76
2022/02/15 02:40:23;;;;;;;18.40;9.10;;;5.30;68.80;;;;;;5073562;28;19981;-77
2022/02/15 02:42:49;;;;;;;17.70;9.63;;;5.20;68.60;;;;;;5073766;28;20036;-76
2022/02/15 02:45:18;;;;;;;;;;;5.20;68.40;;;;;;5074014;28;20524;-75
2022/02/15 02:47:48;;;;;;;19.42;10.27;;;5.10;68.70;;;;;;5056130;28;20007;-77
2022/02/15 02:50:17;;;;;;;23.27;10.73;;;5.10;68.90;;;;;;5056490;28;20447;-76
2022/02/15 02:52:44;;;;;;;19.50;9.88;;;5.00;68.90;;;;;;5056944;28;20032;-77
2022/02/15 02:55:11;;;;;;;17.55;8.40;;;4.90;69.10;;;;;;5074436;28;20068;-77
2022/02/15 02:57:38;;;;;;;16.52;8.88;;;4.90;69.20;;;;;;5057002;28;20033;-76
2022/02/15 03:00:24;;;;;;;18.73;9.88;;;4.90;69.20;;;;;;5073328;28;20077;-77
2022/02/15 03:02:51;;;;;;;20.50;9.27;;;4.80;69.30;;;;;;5072545;28;20040;-77
2022/02/15 03:05:17;;;;;;;17.83;8.98;;;4.80;69.20;;;;;;5056340;28;20033;-77
2022/02/15 03:07:43;;;;;;;16.35;8.00;;;4.70;69.40;;;;;;5056636;28;20029;-76
2022/02/15 03:10:09;;;;;;;17.80;8.20;;;4.60;69.30;;;;;;5072868;28;20090;-76
2022/02/15 03:12:35;;;;;;;18.13;7.88;;;4.60;68.70;;;;;;5074483;28;20094;-76
2022/02/15 03:15:03;;;;;;;16.48;8.25;;;4.60;69.30;;;;;;5073227;28;20060;-77
2022/02/15 03:17:29;;;;;;;16.40;8.73;;;4.50;69.30;;;;;;5055166;28;20028;-77
2022/02/15 03:19:55;;;;;;;24.63;11.38;;;4.50;69.50;;;;;;5072791;28;20043;-77
2022/02/15 03:22:22;;;;;;;21.20;10.38;;;4.50;69.70;;;;;;5072815;28;20032;-76
2022/02/15 03:24:48;;;;;;;18.02;10.10;;;4.40;69.80;;;;;;5074734;28;20037;-77
2022/02/15 03:27:14;;;;;;;22.15;10.27;;;4.40;70.00;;;;;;5055912;28;20120;-77
2022/02/15 03:29:40;;;;;;;16.92;9.48;;;4.40;69.80;;;;;;5056374;28;20143;-77
2022/02/15 03:32:07;;;;;;;21.58;10.23;;;4.40;69.80;;;;;;5073712;28;20169;-76
2022/02/15 03:34:33;;;;;;;17.95;9.40;;;4.40;69.60;;;;;;5072072;28;20044;-77
2022/02/15 03:36:59;;;;;;;;;;;4.40;69.50;;;;;;5072889;28;20071;-77
2022/02/15 03:39:25;;;;;;;21.30;10.77;;;4.50;69.20;;;;;;5072987;28;19916;-77
2022/02/15 03:44:36;;;;;;;17.00;10.20;;;4.50;69.00;;;;;;5073092;28;20137;-76
2022/02/15 03:47:03;;;;;;;25.25;12.65;;;4.50;68.90;;;;;;5072441;28;20093;-77
2022/02/15 03:49:29;;;;;;;17.58;10.20;;;4.50;68.20;;;;;;5071744;28;20115;-76
2022/02/15 03:51:55;;;;;;;22.58;10.73;;;4.50;69.00;;;;;;5071935;28;20032;-77
2022/02/15 03:54:21;;;;;;;26.13;13.50;;;4.60;68.80;;;;;;5055671;28;20037;-76
2022/02/15 03:56:47;;;;;;;32.15;14.02;;;4.60;68.70;;;;;;5072153;28;20043;-76
2022/02/15 03:59:14;;;;;;;24.42;12.48;;;4.60;68.60;;;;;;5073891;28;20041;-77
2022/02/15 04:01:41;;;;;;;16.65;8.68;;;4.60;68.40;;;;;;5071722;28;20548;-76
2022/02/15 04:04:07;;;;;;;18.20;8.05;;;4.70;68.50;;;;;;5071402;28;20028;-76
2022/02/15 04:06:33;;;;;;;17.98;9.27;;;4.70;68.40;;;;;;5071904;28;20432;-76
2022/02/15 04:08:59;;;;;;;19.05;9.93;;;4.70;68.20;;;;;;5073604;28;20089;-77
2022/02/15 04:11:25;;;;;;;20.75;8.85;;;4.70;68.10;;;;;;5071829;28;20086;-76
2022/02/15 04:13:52;;;;;;;23.88;9.90;;;4.80;68.10;;;;;;5073468;28;20098;-76
2022/02/15 04:16:18;;;;;;;18.00;8.88;;;4.80;68.00;;;;;;5071709;28;20032;-76
2022/02/15 04:18:47;;;;;;;;;;;4.90;68.00;;;;;;5054950;28;20344;-77
2022/02/15 04:21:15;;;;;;;17.33;7.35;;;4.90;67.70;;;;;;5071550;28;19951;-77
2022/02/15 04:23:42;;;;;;;11.98;6.57;;;4.90;67.60;;;;;;5055220;28;20032;-77
2022/02/15 04:26:08;;;;;;;16.65;7.68;;;5.00;67.20;;;;;;5071476;28;20112;-76
2022/02/15 04:28:34;;;;;;;16.08;7.82;;;5.00;68.00;;;;;;5072543;28;20445;-76
2022/02/15 04:31:00;;;;;;;19.20;8.52;;;5.00;68.00;;;;;;5071435;28;20036;-77
2022/02/15 04:33:27;;;;;;;16.70;8.48;;;4.90;68.30;;;;;;5070774;28;20047;-77
2022/02/15 04:35:53;;;;;;;27.02;13.18;;;4.90;68.50;;;;;;5071246;28;20036;-76
2022/02/15 04:38:19;;;;;;;25.55;13.13;;;4.80;68.50;;;;;;5071680;28;20051;-77
2022/02/15 04:40:45;;;;;;;31.58;15.00;;;4.80;68.60;;;;;;5072653;28;20055;-77
2022/02/15 04:43:11;;;;;;;47.78;20.50;;;4.90;68.60;;;;;;5055200;28;20519;-77
2022/02/15 04:45:37;;;;;;;43.38;16.85;;;4.90;68.50;;;;;;5072768;28;20028;-77
2022/02/15 04:48:03;;;;;;;37.88;17.63;;;5.00;68.30;;;;;;5054832;28;20166;-77
2022/02/15 04:50:30;;;;;;;44.92;18.88;;;5.00;67.50;;;;;;5070252;28;20111;-76
2022/02/15 04:52:56;;;;;;;59.60;25.75;;;5.00;68.00;;;;;;5071406;28;20040;-76
2022/02/15 04:55:22;;;;;;;89.70;36.20;;;5.00;68.00;;;;;;5072418;28;20040;-76
2022/02/15 04:57:48;;;;;;;36.13;17.70;;;5.10;68.00;;;;;;5072858;28;20033;-76
2022/02/15 05:00:14;;;;;;;23.92;12.77;;;5.00;68.00;;;;;;5071072;28;20036;-76
2022/02/15 05:02:40;;;;;;;24.10;12.00;;;5.00;68.00;;;;;;5071434;28;20049;-77
2022/02/15 05:05:07;;;;;;;22.75;12.02;;;5.00;68.10;;;;;;5053666;28;20572;-76
2022/02/15 05:07:35;;;;;;;25.20;11.10;;;5.00;67.60;;;;;;5054658;28;20025;-77
2022/02/15 05:10:20;;;;;;;19.67;10.73;;;4.90;68.40;;;;;;5071270;28;20032;-76
2022/02/15 05:12:47;;;;;;;22.30;10.52;;;4.90;68.40;;;;;;5071395;28;20037;-76
2022/02/15 05:15:13;;;;;;;19.00;9.65;;;4.90;68.30;;;;;;5070768;28;20033;-76
2022/02/15 05:17:43;;;;;;;23.45;11.20;;;4.90;68.10;;;;;;5072557;28;20074;-77
2022/02/15 05:20:12;;;;;;;25.02;11.55;;;4.90;67.80;;;;;;5069764;28;20043;-76
2022/02/15 05:22:39;;;;;;;22.08;10.60;;;4.90;67.60;;;;;;5071360;28;20493;-77
2022/02/15 05:25:06;;;;;;;18.95;10.98;;;4.90;67.70;;;;;;5070873;28;20082;-76
2022/02/15 05:27:32;;;;;;;20.02;10.27;;;4.90;67.40;;;;;;5071149;28;20025;-77
2022/02/15 05:29:58;;;;;;;;;;;4.90;67.40;;;;;;5071803;28;20033;-76
2022/02/15 05:32:24;;;;;;;19.35;9.70;;;4.90;67.40;;;;;;5071969;28;19912;-77
2022/02/15 05:34:50;;;;;;;17.90;8.60;;;4.90;67.40;;;;;;5069680;28;20036;-77
2022/02/15 05:37:16;;;;;;;18.05;9.50;;;4.80;67.20;;;;;;5083342;28;20041;-76
2022/02/15 05:39:43;;;;;;;21.90;8.85;;;4.80;67.20;;;;;;5095044;28;20040;-76
2022/02/15 05:42:09;;;;;;;20.35;9.00;;;4.80;67.20;;;;;;5094951;28;20527;-77
2022/02/15 05:44:35;;;;;;;19.95;9.20;;;4.80;67.20;;;;;;5095322;28;20035;-77
2022/02/15 05:47:01;;;;;;;17.70;9.40;;;4.80;67.40;;;;;;5094785;28;20032;-77
2022/02/15 05:49:27;;;;;;;18.13;7.78;;;4.70;68.40;;;;;;5088022;28;20554;-77
2022/02/15 05:51:54;;;;;;;27.55;14.32;;;4.70;67.70;;;;;;5074363;28;20038;-77
2022/02/15 05:54:20;;;;;;;13.18;6.88;;;4.60;67.60;;;;;;5074925;28;20033;-77
2022/02/15 05:56:46;;;;;;;12.43;6.60;;;4.60;67.80;;;;;;5074498;28;20033;-77
2022/02/15 05:59:12;;;;;;;13.95;7.22;;;4.60;67.80;;;;;;5076006;28;20436;-76
2022/02/15 06:01:38;;;;;;;14.27;6.80;;;4.50;67.90;;;;;;5073965;28;20035;-76
2022/02/15 06:06:49;;;;;;;13.50;6.82;;;4.50;67.90;;;;;;5074517;28;20052;-77
2022/02/15 06:09:15;;;;;;;10.93;6.07;;;4.50;67.90;;;;;;5076181;28;20035;-77
2022/02/15 06:11:41;;;;;;;13.52;5.75;;;4.50;68.00;;;;;;5074119;28;20052;-77
2022/02/15 06:14:07;;;;;;;14.65;6.10;;;4.50;67.90;;;;;;5074321;28;20397;-77
2022/02/15 06:16:33;;;;;;;14.05;5.90;;;4.50;67.80;;;;;;5074008;28;20060;-77
2022/02/15 06:19:00;;;;;;;10.30;5.70;;;4.60;67.70;;;;;;5073779;28;20060;-77
2022/02/15 06:21:26;;;;;;;12.35;5.78;;;4.60;67.60;;;;;;5054905;28;20043;-76
2022/02/15 06:23:52;;;;;;;;;;;4.60;67.50;;;;;;5038202;28;20032;-77
2022/02/15 06:26:19;;;;;;;10.40;6.03;;;4.70;67.30;;;;;;5053826;28;20336;-77
2022/02/15 06:28:45;;;;;;;11.25;5.05;;;4.70;66.50;;;;;;5054200;28;20067;-76
2022/02/15 06:31:11;;;;;;;12.13;6.10;;;4.80;67.20;;;;;;5037038;28;20043;-76
2022/02/15 06:33:37;;;;;;;13.27;7.10;;;4.80;67.20;;;;;;5054079;28;20043;-76
2022/02/15 06:36:05;;;;;;;25.02;12.45;;;4.90;67.30;;;;;;5052314;28;20047;-77
2022/02/15 06:38:31;;;;;;;25.02;13.20;;;4.90;67.40;;;;;;5074367;28;20044;-77
2022/02/15 06:40:58;;;;;;;26.40;14.63;;;4.80;67.60;;;;;;5056845;28;20032;-77
2022/02/15 06:43:24;;;;;;;;;;;4.80;67.70;;;;;;5074539;28;20456;-77
2022/02/15 06:45:50;;;;;;;21.25;10.32;;;4.80;67.60;;;;;;5073630;28;19921;-76
2022/02/15 06:48:16;;;;;;;20.60;11.98;;;4.90;67.60;;;;;;5056974;28;20024;-76
2022/02/15 06:50:42;;;;;;;17.20;9.20;;;4.90;67.60;;;;;;5072671;28;20049;-76
2022/02/15 06:53:08;;;;;;;18.30;9.38;;;4.90;67.60;;;;;;5073508;28;20035;-77
2022/02/15 06:55:34;;;;;;;19.65;9.88;;;4.90;67.70;;;;;;5056588;28;20127;-76
2022/02/15 06:58:00;;;;;;;20.55;9.70;;;4.80;67.70;;;;;;5073646;28;20043;-77
2022/02/15 07:00:27;;;;;;;21.00;10.90;;;4.90;67.70;;;;;;5074417;28;20037;-77
2022/02/15 07:02:53;;;;;;;24.85;10.52;;;4.90;67.80;;;;;;5073415;28;20044;-76
2022/02/15 07:05:19;;;;;;;29.55;11.20;;;4.90;67.80;;;;;;5072473;28;20045;-76
2022/02/15 07:07:45;;;;;;;33.90;17.55;;;4.90;68.50;;;;;;5056861;28;20035;-76
2022/02/15 07:10:15;;;;;;;34.15;16.00;;;5.00;67.50;;;;;;5056097;28;20047;-76
2022/02/15 07:12:44;;;;;;;26.05;12.68;;;5.00;66.70;;;;;;5056906;28;20082;-77
2022/02/15 07:15:10;;;;;;;24.50;12.15;;;5.10;67.20;;;;;;5072969;28;20040;-76
2022/02/15 07:17:38;;;;;;;23.25;11.68;;;5.10;67.10;;;;;;5073376;28;20074;-77
2022/02/15 07:20:06;;;;;;;26.35;12.02;;;5.10;67.00;;;;;;5072006;28;20047;-77
2022/02/15 07:22:33;;;;;;;26.67;13.05;;;5.10;67.10;;;;;;5056407;28;20032;-77
2022/02/15 07:25:00;;;;;;;26.65;13.88;;;5.20;66.90;;;;;;5056366;28;20036;-76
2022/02/15 07:27:29;;;;;;;;;;;5.40;66.80;;;;;;5073317;28;20029;-76
2022/02/15 07:29:56;;;;;;;75.28;36.13;;;5.40;66.40;;;;;;5074262;28;19921;-77
2022/02/15 07:32:26;;;;;;;53.67;28.27;;;5.50;66.50;;;;;;5073758;28;20020;-77
2022/02/15 07:34:53;;;;;;;35.08;20.73;;;5.50;66.60;;;;;;5072043;28;20060;-77
2022/02/15 07:37:21;;;;;;;52.28;28.08;;;5.50;66.70;;;;;;5072517;28;20036;-77
2022/02/15 07:39:47;;;;;;;61.28;33.50;;;5.50;66.90;;;;;;5056285;28;20032;-76
2022/02/15 07:42:13;;;;;;;;;;;5.60;67.00;;;;;;5056198;28;20060;-77
2022/02/15 07:44:40;;;;;;;57.75;30.20;;;5.60;66.80;;;;;;5074434;28;20286;-76
2022/02/15 07:47:06;;;;;;;59.92;31.45;;;5.70;66.40;;;;;;5072237;28;20035;-76
2022/02/15 07:49:33;;;;;;;51.33;26.67;;;5.80;66.00;;;;;;5073784;28;20028;-76
2022/02/15 07:52:01;;;;;;;49.72;27.23;;;5.90;66.70;;;;;;5071224;28;20044;-77
2022/02/15 07:54:27;;;;;;;55.03;31.25;;;5.90;66.60;;;;;;5072622;28;20086;-76
2022/02/15 07:56:53;;;;;;;53.55;30.48;;;6.10;66.70;;;;;;5072175;28;20064;-76
2022/02/15 07:59:19;;;;;;;89.55;45.88;;;6.20;66.50;;;;;;5072534;28;20044;-76
2022/02/15 08:01:45;;;;;;;75.82;40.85;;;6.30;66.70;;;;;;5071670;28;20052;-76
2022/02/15 08:04:13;;;;;;;87.80;46.05;;;6.50;66.70;;;;;;5072253;28;20493;-76
2022/02/15 08:06:41;;;;;;;72.75;40.80;;;6.60;66.60;;;;;;5072210;28;20040;-76
2022/02/15 08:09:14;;;;;;;69.90;39.20;;;6.70;66.60;;;;;;5072282;28;20029;-76
2022/02/15 08:12:08;;;;;;;54.05;31.50;;;6.90;66.20;;;;;;5072042;28;20037;-76
2022/02/15 08:14:35;;;;;;;45.42;25.85;;;7.00;67.00;;;;;;5073906;28;20045;-76
2022/02/15 08:17:01;;;;;;;37.95;22.77;;;7.20;66.50;;;;;;5071738;28;20029;-76
2022/02/15 08:19:27;;;;;;;41.60;23.92;;;7.40;66.50;;;;;;5071856;28;20036;-76
2022/02/15 08:21:56;;;;;;;30.83;19.30;;;7.60;66.30;;;;;;5071916;28;20094;-77
2022/02/15 08:24:23;;;;;;;31.20;19.27;;;7.70;65.80;;;;;;5055670;28;20036;-76
2022/02/15 08:26:49;;;;;;;22.70;11.65;;;8.00;66.20;;;;;;5071637;28;20075;-76
2022/02/15 08:29:16;;;;;;;28.08;12.25;;;8.30;65.70;;;;;;5071988;28;20375;-76
2022/02/15 08:31:42;;;;;;;;;;;8.70;65.50;;;;;;5073248;28;20036;-76
2022/02/15 08:34:08;;;;;;;15.73;8.73;;;9.00;65.00;;;;;;5055068;28;20426;-76
2022/02/15 08:36:34;;;;;;;16.48;9.95;;;9.40;64.20;;;;;;5070513;28;20041;-76
2022/02/15 08:39:00;;;;;;;20.85;11.63;;;9.90;63.30;;;;;;5073115;28;20151;-76
2022/02/15 08:41:26;;;;;;;25.05;14.88;;;10.20;62.50;;;;;;5054760;28;20082;-76
2022/02/15 08:43:52;;;;;;;29.35;16.42;;;10.20;62.90;;;;;;5071762;28;20127;-77
2022/02/15 08:46:18;;;;;;;32.67;19.10;;;10.10;63.10;;;;;;5054729;28;20097;-76
2022/02/15 08:48:45;;;;;;;29.80;18.08;;;10.20;63.30;;;;;;5071504;28;20040;-77
2022/02/15 08:51:11;;;;;;;26.35;15.45;;;10.20;63.40;;;;;;5071589;28;20517;-76
2022/02/15 08:53:38;;;;;;;27.52;15.55;;;10.30;63.40;;;;;;5054762;28;20044;-76
2022/02/15 08:56:05;;;;;;;28.15;15.95;;;10.40;63.10;;;;;;5071030;28;20064;-76
2022/02/15 08:58:32;;;;;;;32.88;18.48;;;10.50;62.20;;;;;;5071537;28;20044;-76
2022/02/15 09:01:00;;;;;;;29.90;18.10;;;10.60;61.90;;;;;;5070948;28;20033;-76
2022/02/15 09:03:26;;;;;;;33.45;19.90;;;10.70;62.40;;;;;;5054950;28;20048;-76
2022/02/15 09:05:54;;;;;;;33.00;20.35;;;10.90;61.60;;;;;;5071296;28;20036;-76
2022/02/15 09:08:22;;;;;;;37.55;22.42;;;11.10;61.60;;;;;;5072671;28;20046;-77
2022/02/15 09:10:48;;;;;;;39.45;21.50;;;11.40;61.00;;;;;;5071037;28;20029;-76
2022/02/15 09:13:14;;;;;;;36.85;23.08;;;11.60;60.50;;;;;;5072294;28;20064;-76
2022/02/15 09:15:40;;;;;;;41.85;25.55;;;11.80;60.30;;;;;;5053989;28;20075;-76
2022/02/15 09:18:06;;;;;;;38.28;23.17;;;11.90;60.00;;;;;;5072600;28;20040;-76
2022/02/15 09:20:33;;;;;;;52.35;23.65;;;12.20;59.60;;;;;;5053508;28;20040;-76
2022/02/15 09:22:59;;;;;;;;;;;12.40;59.30;;;;;;5052840;28;20068;-76
2022/02/15 09:25:25;;;;;;;30.33;16.52;;;12.50;59.90;;;;;;5034168;28;20305;-76
2022/02/15 09:27:51;;;;;;;24.90;13.25;;;12.50;59.00;;;;;;5052438;28;20060;-77
2022/02/15 09:30:17;;;;;;;21.27;14.20;;;12.50;59.10;;;;;;5050668;28;20037;-77
2022/02/15 09:32:43;;;;;;;27.38;11.65;;;12.50;59.20;;;;;;5034532;28;20061;-77
2022/02/15 09:35:09;;;;;;;17.70;9.32;;;12.50;59.30;;;;;;5033994;28;20033;-76
2022/02/15 09:37:36;;;;;;;14.10;7.20;;;12.50;59.10;;;;;;5067594;28;20029;-77
2022/02/15 09:40:03;;;;;;;17.38;8.02;;;12.60;58.90;;;;;;5071117;28;20459;-77
2022/02/15 09:42:30;;;;;;;13.27;7.82;;;12.70;58.10;;;;;;5072082;28;20032;-76
2022/02/15 09:44:56;;;;;;;19.80;9.95;;;12.80;58.30;;;;;;5071030;28;20524;-76
2022/02/15 09:47:43;;;;;;;61.83;23.13;;;12.80;57.90;;;;;;5070699;28;20040;-76
2022/02/15 09:50:10;;;;;;;18.88;10.75;;;12.90;57.80;;;;;;5070597;28;20602;-76
2022/02/15 09:52:37;;;;;;;22.08;9.50;;;12.80;57.10;;;;;;5053178;28;20063;-76
2022/02/15 09:55:04;;;;;;;22.23;10.13;;;12.90;57.60;;;;;;5072111;28;20111;-76
2022/02/15 09:57:31;;;;;;;18.75;10.07;;;12.80;57.40;;;;;;5054008;28;20061;-76
2022/02/15 09:59:57;;;;;;;;;;;12.70;57.50;;;;;;5072690;28;20090;-77
2022/02/15 10:02:34;;;;;;;20.90;11.75;;;12.70;58.30;;;;;;5071648;28;19920;-76
2022/02/15 10:05:02;;;;;;;23.00;11.57;;;12.60;57.50;;;;;;5071027;28;20041;-76
2022/02/15 10:07:28;;;;;;;23.25;13.15;;;12.60;57.50;;;;;;5069655;28;20123;-76
2022/02/15 10:09:55;;;;;;;;;;;12.50;57.50;;;;;;5071441;28;20066;-76
2022/02/15 10:12:28;;;;;;;26.17;12.02;;;12.50;57.90;;;;;;5053585;28;19919;-76
2022/02/15 10:14:55;;;;;;;18.90;8.95;;;12.50;57.30;;;;;;5054701;28;20078;-77
2022/02/15 10:17:23;;;;;;;28.88;11.77;;;12.50;57.10;;;;;;5071663;28;20028;-77
2022/02/15 10:19:53;;;;;;;24.40;11.20;;;12.50;57.00;;;;;;5054086;28;20485;-76
2022/02/15 10:22:21;;;;;;;17.88;9.32;;;12.50;56.80;;;;;;5069357;28;20433;-76
2022/02/15 10:25:06;;;;;;;17.15;9.85;;;12.60;56.50;;;;;;5054103;28;20040;-76
2022/02/15 10:27:32;;;;;;;21.50;10.18;;;12.70;56.30;;;;;;5073617;28;20042;-77
2022/02/15 10:30:01;;;;;;;18.38;8.35;;;12.80;56.20;;;;;;5074070;28;20509;-75
2022/02/15 10:32:27;;;;;;;15.07;7.78;;;12.80;55.90;;;;;;5057544;28;20047;-76
2022/02/15 10:34:57;;;;;;;19.08;9.68;;;12.80;55.90;;;;;;5075885;28;20043;-77
2022/02/15 10:37:41;;;;;;;16.65;8.77;;;12.80;55.70;;;;;;5073903;28;20032;-76
2022/02/15 10:40:08;;;;;;;15.13;7.85;;;12.80;55.70;;;;;;5073623;28;20032;-77
2022/02/15 10:42:37;;;;;;;24.75;12.95;;;12.80;55.00;;;;;;5073948;28;20378;-76
2022/02/15 10:45:08;;;;;;;24.40;13.27;;;12.80;55.00;;;;;;5075103;28;20062;-77
2022/02/15 10:47:53;;;;;;;27.15;12.73;;;12.80;55.60;;;;;;5075278;28;20075;-76
2022/02/15 10:50:19;;;;;;;45.13;23.70;;;12.90;55.80;;;;;;5073341;28;20390;-76
2022/02/15 10:52:45;;;;;;;51.03;25.80;;;12.90;55.50;;;;;;5056152;28;20473;-76
2022/02/15 10:55:12;;;;;;;26.63;12.88;;;12.90;55.50;;;;;;5073258;28;20120;-76
2022/02/15 10:57:40;;;;;;;27.65;12.60;;;13.00;55.40;;;;;;5073780;28;20025;-77
2022/02/15 11:00:10;;;;;;;26.98;14.48;;;13.00;55.20;;;;;;5074650;28;20037;-76
2022/02/15 11:02:57;;;;;;;22.38;11.88;;;13.10;54.90;;;;;;5056883;28;20140;-77
2022/02/15 11:05:23;;;;;;;34.77;18.27;;;13.20;54.80;;;;;;5073260;28;20067;-76
2022/02/15 11:07:49;;;;;;;;;;;13.30;54.30;;;;;;5073154;28;20464;-76
2022/02/15 11:10:52;;;;;;;26.63;13.43;;;13.40;55.00;;;;;;5056454;28;20297;-77
2022/02/15 11:13:19;;;;;;;20.25;9.35;;;13.40;54.40;;;;;;5074700;28;20485;-77
2022/02/15 11:15:51;;;;;;;17.33;8.93;;;13.50;54.50;;;;;;5056172;28;20068;-77
2022/02/15 11:18:29;;;;;;;17.08;8.95;;;13.60;54.30;;;;;;5074748;28;20554;-77
2022/02/15 11:20:56;;;;;;;16.38;9.70;;;13.60;54.10;;;;;;5072891;28;20070;-76
2022/02/15 11:23:45;;;;;;;12.30;6.00;;;13.60;54.30;;;;;;5055664;28;20123;-76
2022/02/15 11:26:17;;;;;;;12.82;6.90;;;13.60;54.30;;;;;;5073920;28;20044;-76
2022/02/15 11:29:02;;;;;;;16.30;9.50;;;13.60;54.10;;;;;;5073196;28;20362;-76
2022/02/15 11:31:32;;;;;;;15.35;7.72;;;13.60;54.20;;;;;;5056292;28;20032;-76
2022/02/15 11:34:42;;;;;;;14.65;8.30;;;13.60;53.90;;;;;;5072965;28;20489;-77
2022/02/15 11:37:37;;;;;;;18.52;8.57;;;13.60;53.70;;;;;;5072463;28;20039;-76
2022/02/15 11:40:10;;;;;;;21.60;10.57;;;13.70;53.60;;;;;;5072858;28;20508;-77
2022/02/15 11:43:03;;;;;;;20.15;11.05;;;13.80;53.20;;;;;;5072926;28;20048;-76
2022/02/15 11:45:30;;;;;;;24.75;11.43;;;13.90;53.20;;;;;;5072440;28;20098;-77
2022/02/15 11:48:15;;;;;;;19.77;11.18;;;13.90;52.90;;;;;;5055917;28;20028;-77
2022/02/15 11:51:01;;;;;;;19.45;9.73;;;14.10;53.10;;;;;;5055658;28;20043;-77
2022/02/15 11:53:29;;;;;;;20.00;9.70;;;14.10;52.30;;;;;;5051726;28;20033;-77
2022/02/15 11:55:56;;;;;;;15.73;6.78;;;14.20;52.70;;;;;;5052295;28;20039;-76
2022/02/15 11:58:23;;;;;;;12.18;7.30;;;14.20;51.80;;;;;;5052636;28;20048;-77
2022/02/15 12:00:49;;;;;;;18.83;8.07;;;14.30;52.20;;;;;;5052073;28;20035;-76
2022/02/15 12:03:17;;;;;;;;;;;14.30;51.90;;;;;;5036397;28;20478;-76
2022/02/15 12:05:46;;;;;;;18.70;7.70;;;14.30;52.40;;;;;;5052102;28;19923;-77
2022/02/15 12:08:33;;;;;;;18.58;7.15;;;14.30;51.90;;;;;;5045894;28;20043;-76
2022/02/15 12:11:04;;;;;;;18.27;4.13;;;14.20;51.90;;;;;;5071908;28;20074;-77
2022/02/15 12:13:34;;;;;;;11.60;4.40;;;14.10;51.80;;;;;;5072160;28;20135;-76
2022/02/15 12:16:00;;;;;;;11.52;5.80;;;14.10;51.30;;;;;;5071713;28;20032;-77
2022/02/15 12:18:29;;;;;;;14.25;6.35;;;14.10;52.00;;;;;;5072241;28;20067;-76
2022/02/15 12:20:58;;;;;;;8.95;4.00;;;14.10;51.80;;;;;;5071701;28;20533;-76
2022/02/15 12:23:25;;;;;;;20.05;4.88;;;14.00;52.20;;;;;;5071145;28;20052;-76
2022/02/15 12:25:51;;;;;;;6.82;3.25;;;13.90;52.40;;;;;;5072724;28;20102;-77
2022/02/15 12:28:35;;;;;;;;;;;13.90;52.40;;;;;;5073907;28;20028;-77
2022/02/15 12:31:02;;;;;;;8.10;3.50;;;13.80;52.40;;;;;;5054782;28;19925;-77
2022/02/15 12:33:46;;;;;;;9.23;3.47;;;13.90;52.40;;;;;;5071897;28;20036;-77
2022/02/15 12:36:15;;;;;;;10.13;3.92;;;13.80;52.70;;;;;;5072605;28;20044;-76
2022/02/15 12:38:41;;;;;;;7.03;2.90;;;13.70;53.50;;;;;;5070836;28;20058;-77
2022/02/15 12:41:16;;;;;;;8.02;3.30;;;13.60;52.30;;;;;;5071315;28;20040;-76
2022/02/15 12:43:43;;;;;;;8.57;2.80;;;13.50;52.80;;;;;;5071744;28;20032;-77
2022/02/15 12:46:09;;;;;;;9.50;2.83;;;13.60;52.60;;;;;;5054467;28;20067;-76
2022/02/15 12:48:35;;;;;;;14.57;5.70;;;13.50;52.40;;;;;;5072304;28;20144;-77
2022/02/15 12:51:02;;;;;;;34.03;21.90;;;13.50;52.40;;;;;;5071255;28;20033;-77
2022/02/15 12:53:28;;;;;;;21.27;10.80;;;13.50;52.30;;;;;;5070595;28;20378;-77
2022/02/15 12:55:54;;;;;;;;;;;13.50;52.70;;;;;;5072943;28;20036;-76